Etusivu
METAR-TAF:

METAR-TAF

Lentoasemat :

Iğdır, Turkki

Leveyspiiri: 39-58-36N, Pituuspiiri: 43-52-36E, korkeus merenpinnasta: 945 m

Tämänhetkinen sää

Tämä raportti tehtiin 10 tuntia ja 51 minuuttia sitten, kello 14.50 UTC
Tuuli 4 kn etelästä
Lämpötila 2°C
Kosteus 51%
Ilmanpaine 1029 hPa
Näkyvyys 10 km tai enemmän
ei pilviä alle 1500 m:ssä eikä cumulonimbus-pilviä

METAR: LTCT 271450Z 17004KT CAVOK 02/M07 Q1029

Aika: 04:41 (01:41 UTC)

Sääennuste

Tämä raportti tehtiin 3 tuntia ja 1 minuuttia sitten, kello 22.40 UTC
Ennuste voimassa 28. päivästä klo 00 UTC - 28. päivään klo 09 UTC
Tuuli 7 kn lounaasta
Näkyvyys 10 km tai enemmän
ei pilviä alle 1500 m:ssä eikä cumulonimbus-pilviä
Tulossa
28. päivästä klo 02 UTC - 28. päivään klo 04 UTC
Hajanaisia pilviä 8000 ft:n korkeudessa

TAF: LTCT 272240Z 2800/2809 23007KT CAVOK BECMG 2802/2804 SCT080

Säähavainnot ja -ennusteet yli 4000 lentoasemalta (METAR- ja TAF-raportit).

Käytössä olevat sääasemat on merkitty karttaan keltaisilla ja punaisilla pisteillä.

Aseta hiiri pisteen päälle nähdäksesi sääaseman nimen.

Klikkaa sitten nähdäksesi säähavainnot ja -ennusteet.

Kartan vaihtaminen: klikkaa mustalla rastilla varustettuja vihreitä pisteitä, niin voit zoomata sisään; viivalla varustettua vihreää pistettä, niin voit zoomata ulos tai vihreitä nuolia, niin pääset viereisille kartoille.


METAR-TAF: